Churchill, Canada
Current Conditions -  °F | °C
As of 3:00 AM on Thursday 18 Dec 2014 (Local Time) from CYYQ Reporting Station
Clear Clear  
Wind Chill: -9°   Ceiling: Unl
Heat Index:   Visibility: 15mi
Dew Point:   Wind: 12mph
Humidity: 85%   Direction: 260°W
Pressure: 30.02"   Gusts: NA
Location:  58.75°N, 94.06°W
Report Text: CYYQ 180900Z 26010KT 15SM SKC M14/M16 A3002 RMK SLP168
Loading
Personal Weather Stations






























Interactive Weather Map New forecast layout! Learn more

10-Day Weather Forecast

Advertisements
Track Severe Weather on mobile